Portada
METAR-TAF:

METAR-TAF

Aeroports :

Vestmannaeyjar, Islàndia

latitud: 63-24N, longitud: 020-17W, altitud: 118 m

Observació

L'informe es va fer fa 7 hores i 37 minuts, a les 18:00 UTC
Vent 3 kt del Nord
Temperatura 4°C
Humitat 81%
Pressió 1043 hPa
Visibilitat 10 km o més
sense núvols per sota de 1500 mi sense presència de cumulonimbus.

METAR: BIVM 051800Z 01003KT CAVOK 04/01 Q1043

Hora: 01:37 (01:37 UTC)

Pronòstic

L'informe es va fer fa 9 hores i 7 minuts, a les 16:30 UTC
Pronòstic vàlid del 05 a les 17 UTC al 05 a les 19 UTC
Vent 5 kt del Nord/Nord-Est
Visibilitat 10 km o més
Núvols disperses a una alçada de 3000 ft

TAF: BIVM 051630Z 0517/0519 03005KT 9999 SCT030

Observacions i pronòstics meteorològics de més de 4000 aeroports (METAR i TAF).

Les estacions disponibles són els punts grocs i vermells al mapa.

Posi el ratolí al punt desitjat per veure el nom de l'estació.

Feu clic per veure les observacions i els pronòstics meteorològics.

Per canviar el mapa: feu clic els botons verds amb una creu de color negre per apropar; al botó verd amb un guió per allunyar la imatge; o en les fletxes verdes per a mapes adjacents.


METAR-TAF: